createdAt,value
2018-03-28T00:00:04.130Z,9.60
2018-03-28T00:02:35.592Z,9.60
2018-03-28T00:05:08.281Z,9.60
2018-03-28T00:07:41.050Z,9.60
2018-03-28T00:10:14.131Z,9.50
2018-03-28T00:12:47.310Z,9.40
2018-03-28T00:15:18.050Z,9.40
2018-03-28T00:17:49.190Z,9.30
2018-03-28T00:20:22.190Z,9.30
2018-03-28T00:22:59.051Z,9.20
2018-03-28T00:25:30.370Z,9.10
2018-03-28T00:28:02.771Z,9.10
2018-03-28T00:30:33.810Z,9.10
2018-03-28T00:33:05.870Z,9.10
2018-03-28T00:35:37.750Z,9.10
2018-03-28T00:38:10.831Z,9.20
2018-03-28T00:40:42.290Z,9.20
2018-03-28T00:43:15.271Z,9.20
2018-03-28T00:45:48.870Z,9.30
2018-03-28T00:48:20.930Z,9.30
2018-03-28T00:50:51.971Z,9.40
2018-03-28T00:53:28.950Z,9.40
2018-03-28T00:56:09.010Z,9.40
2018-03-28T00:58:39.230Z,9.30
2018-03-28T01:01:11.809Z,9.30
2018-03-28T01:03:43.869Z,9.40
2018-03-28T01:06:15.929Z,9.30
2018-03-28T01:08:48.370Z,9.30
2018-03-28T01:11:23.031Z,9.20
2018-03-28T01:13:54.770Z,9.20
2018-03-28T01:16:27.051Z,9.10
2018-03-28T01:18:59.010Z,9.20
2018-03-28T01:21:35.590Z,9.20
2018-03-28T01:24:09.830Z,9.20
2018-03-28T01:26:41.031Z,9.20
2018-03-28T01:29:11.670Z,9.30
2018-03-28T01:31:44.749Z,9.30
2018-03-28T01:34:18.870Z,9.10
2018-03-28T01:36:50.229Z,9.20
2018-03-28T01:39:22.389Z,9.30
2018-03-28T01:41:59.372Z,9.20
2018-03-28T01:44:31.850Z,9.20
2018-03-28T01:47:04.390Z,9.20
2018-03-28T01:49:38.390Z,9.20
2018-03-28T01:52:13.271Z,9.20
2018-03-28T01:54:45.730Z,9.20
2018-03-28T01:57:19.951Z,9.20
2018-03-28T01:59:51.710Z,9.20
2018-03-28T02:02:24.490Z,9.20
2018-03-28T02:04:55.630Z,9.10
2018-03-28T02:07:25.753Z,9.10
2018-03-28T02:10:01.070Z,9.20
2018-03-28T02:12:34.573Z,9.20
2018-03-28T02:15:08.690Z,9.30
2018-03-28T02:17:40.082Z,9.40
2018-03-28T02:20:16.390Z,9.40
2018-03-28T02:22:51.418Z,9.40
2018-03-28T02:25:23.910Z,9.30
2018-03-28T02:27:56.490Z,9.30
2018-03-28T02:30:29.411Z,9.40
2018-03-28T02:33:03.190Z,9.30
2018-03-28T02:35:34.831Z,9.30
2018-03-28T02:38:05.890Z,9.30
2018-03-28T02:40:37.753Z,9.40
2018-03-28T02:43:09.710Z,9.40
2018-03-28T02:45:43.191Z,9.50
2018-03-28T02:48:14.950Z,9.60
2018-03-28T02:50:46.511Z,9.60
2018-03-28T02:53:17.751Z,9.60
2018-03-28T02:55:48.889Z,9.40
2018-03-28T02:58:21.411Z,9.50
2018-03-28T03:00:53.230Z,9.50
2018-03-28T03:03:25.915Z,9.50
2018-03-28T03:05:59.712Z,9.50
2018-03-28T03:08:30.131Z,9.50
2018-03-28T03:11:01.271Z,9.60
2018-03-28T03:13:32.930Z,9.60
2018-03-28T03:16:06.390Z,9.60
2018-03-28T03:18:39.511Z,9.60
2018-03-28T03:21:10.650Z,9.70
2018-03-28T03:23:43.237Z,9.70
2018-03-28T03:26:13.870Z,9.70
2018-03-28T03:28:46.350Z,9.70
2018-03-28T03:31:18.392Z,9.70
2018-03-28T03:33:55.410Z,9.80
2018-03-28T03:36:27.770Z,9.90
2018-03-28T03:39:02.710Z,9.90
2018-03-28T03:41:36.190Z,10.00
2018-03-28T03:44:07.631Z,10.10
2018-03-28T03:46:39.810Z,10.20
2018-03-28T03:49:10.750Z,10.20
2018-03-28T03:51:41.790Z,10.20
2018-03-28T03:54:13.752Z,10.30
2018-03-28T03:56:46.211Z,10.30
2018-03-28T03:59:20.030Z,10.40
2018-03-28T04:01:52.014Z,10.30
2018-03-28T04:04:23.950Z,10.40
2018-03-28T04:06:56.112Z,10.50
2018-03-28T04:09:28.438Z,10.50
2018-03-28T04:12:00.390Z,10.40
2018-03-28T04:14:31.727Z,10.40
2018-03-28T04:17:08.050Z,10.30
2018-03-28T04:19:41.550Z,10.30
2018-03-28T04:22:14.030Z,10.30
2018-03-28T04:24:47.632Z,10.20
2018-03-28T04:27:19.171Z,10.40
2018-03-28T04:29:51.549Z,10.40
2018-03-28T04:32:23.411Z,10.30
2018-03-28T04:34:57.130Z,10.40
2018-03-28T04:37:28.430Z,10.40
2018-03-28T04:40:01.350Z,10.40
2018-03-28T04:42:33.010Z,10.40
2018-03-28T04:45:03.950Z,10.40
2018-03-28T04:47:36.110Z,10.40
2018-03-28T04:50:08.790Z,10.40
2018-03-28T04:52:40.230Z,10.50
2018-03-28T04:55:12.450Z,10.50
2018-03-28T04:57:43.954Z,10.50
2018-03-28T05:00:15.910Z,10.40
2018-03-28T05:02:47.150Z,10.40
2018-03-28T05:05:17.690Z,10.40
2018-03-28T05:07:49.329Z,10.30
2018-03-28T05:10:23.450Z,10.30
2018-03-28T05:12:55.010Z,10.20
2018-03-28T05:15:26.970Z,10.00
2018-03-28T05:17:58.610Z,10.00
2018-03-28T05:20:31.090Z,9.90
2018-03-28T05:23:04.291Z,9.90
2018-03-28T05:25:35.930Z,9.90
2018-03-28T05:28:12.410Z,9.90
2018-03-28T05:30:43.550Z,9.80
2018-03-28T05:33:14.430Z,9.80
2018-03-28T05:35:45.130Z,9.80
2018-03-28T05:38:17.470Z,9.80
2018-03-28T05:40:49.770Z,9.80
2018-03-28T05:43:21.471Z,9.80
2018-03-28T05:45:52.749Z,9.80
2018-03-28T05:48:25.037Z,9.90
2018-03-28T05:50:58.110Z,9.90
2018-03-28T05:53:33.410Z,9.90
2018-03-28T05:56:05.010Z,9.90
2018-03-28T05:58:36.770Z,9.90
2018-03-28T06:01:08.011Z,9.90
2018-03-28T06:03:39.410Z,9.90
2018-03-28T06:06:13.372Z,9.90
2018-03-28T06:08:50.151Z,9.90
2018-03-28T06:11:22.209Z,9.90
2018-03-28T06:13:55.810Z,9.90
2018-03-28T06:16:28.450Z,9.90
2018-03-28T06:19:00.849Z,10.00
2018-03-28T06:21:32.930Z,10.00
2018-03-28T06:24:05.448Z,9.90
2018-03-28T06:26:37.351Z,9.90
2018-03-28T06:29:15.429Z,9.80
2018-03-28T06:31:48.549Z,10.00
2018-03-28T06:34:22.562Z,10.00
2018-03-28T06:36:54.483Z,10.00
2018-03-28T06:39:26.783Z,10.00
2018-03-28T06:41:57.942Z,10.00
2018-03-28T06:44:30.422Z,10.00
2018-03-28T06:47:02.065Z,10.00
2018-03-28T06:49:34.963Z,9.90
2018-03-28T06:52:13.444Z,9.80
2018-03-28T06:54:48.903Z,9.80
2018-03-28T06:57:20.787Z,9.70
2018-03-28T06:59:55.902Z,9.70
2018-03-28T07:02:27.982Z,9.70
2018-03-28T07:05:00.123Z,9.50
2018-03-28T07:07:33.662Z,9.70
2018-03-28T07:10:06.462Z,9.60
2018-03-28T07:12:39.803Z,9.60
2018-03-28T07:15:11.161Z,9.60
2018-03-28T07:17:44.542Z,9.60
2018-03-28T07:20:17.021Z,9.70
2018-03-28T07:22:48.444Z,9.60
2018-03-28T07:25:22.429Z,9.60
2018-03-28T07:27:57.421Z,9.60
2018-03-28T07:30:30.926Z,9.60
2018-03-28T07:33:02.867Z,9.70
2018-03-28T07:35:37.205Z,9.70
2018-03-28T07:38:15.405Z,9.60
2018-03-28T07:40:47.569Z,9.60
2018-03-28T07:43:20.972Z,9.60
2018-03-28T07:45:53.125Z,9.70
2018-03-28T07:48:25.805Z,9.70
2018-03-28T07:50:57.565Z,9.60
2018-03-28T07:53:29.124Z,9.60
2018-03-28T07:56:00.447Z,10.80
2018-03-28T07:58:34.264Z,9.60
2018-03-28T08:01:09.816Z,9.70
2018-03-28T08:03:45.885Z,9.80
2018-03-28T08:06:17.225Z,9.80
2018-03-28T08:08:52.245Z,9.80
2018-03-28T08:11:23.469Z,9.80
2018-03-28T08:14:02.460Z,10.00
2018-03-28T08:16:36.134Z,10.00
2018-03-28T08:19:09.280Z,10.10
2018-03-28T08:21:41.797Z,10.00
2018-03-28T08:24:15.888Z,10.00
2018-03-28T08:26:50.942Z,9.90
2018-03-28T08:29:23.003Z,9.80
2018-03-28T08:31:55.377Z,9.80
2018-03-28T08:34:27.349Z,9.80
2018-03-28T08:37:00.429Z,9.80
2018-03-28T08:39:32.311Z,9.90
2018-03-28T08:42:03.440Z,9.80
2018-03-28T08:44:35.376Z,10.00
2018-03-28T08:47:07.359Z,10.00
2018-03-28T08:49:41.060Z,10.00
2018-03-28T08:52:14.707Z,10.00
2018-03-28T08:54:51.499Z,10.00
2018-03-28T08:57:22.580Z,10.00
2018-03-28T08:59:56.060Z,10.10
2018-03-28T09:02:28.179Z,10.20
2018-03-28T09:04:59.483Z,10.30
2018-03-28T09:07:30.619Z,10.30
2018-03-28T09:10:02.899Z,10.10
2018-03-28T09:12:33.820Z,10.20
2018-03-28T09:15:05.800Z,10.20
2018-03-28T09:17:38.159Z,10.30
2018-03-28T09:20:09.308Z,10.30
2018-03-28T09:22:40.963Z,10.30
2018-03-28T09:25:12.721Z,10.30
2018-03-28T09:27:51.460Z,10.40
2018-03-28T09:30:23.619Z,10.40
2018-03-28T09:32:54.659Z,10.30
2018-03-28T09:35:26.726Z,10.30
2018-03-28T09:37:58.462Z,10.40
2018-03-28T09:40:29.927Z,10.30
2018-03-28T09:43:01.572Z,10.30
2018-03-28T09:45:32.210Z,10.40
2018-03-28T09:48:03.150Z,10.50
2018-03-28T09:50:35.000Z,10.50
2018-03-28T09:53:07.361Z,10.50
2018-03-28T09:55:41.080Z,10.50
2018-03-28T09:58:14.061Z,10.60
2018-03-28T10:00:46.640Z,10.60
2018-03-28T10:03:20.753Z,10.70
2018-03-28T10:05:52.002Z,10.70
2018-03-28T10:08:23.961Z,10.70
2018-03-28T10:10:54.881Z,10.70
2018-03-28T10:13:28.297Z,10.60
2018-03-28T10:16:02.289Z,10.70
2018-03-28T10:18:33.858Z,10.80
2018-03-28T10:21:05.412Z,10.80
2018-03-28T10:23:36.441Z,10.80
2018-03-28T10:26:09.828Z,10.80
2018-03-28T10:28:42.481Z,10.90
2018-03-28T10:31:15.827Z,10.90
2018-03-28T10:33:51.866Z,10.90
2018-03-28T10:36:23.115Z,11.10
2018-03-28T10:38:56.465Z,11.10
2018-03-28T10:41:29.458Z,11.20
2018-03-28T10:44:01.666Z,11.20
2018-03-28T10:46:33.486Z,11.30
2018-03-28T10:49:06.000Z,11.30
2018-03-28T10:51:37.037Z,11.40
2018-03-28T10:54:08.078Z,11.40
2018-03-28T10:56:42.471Z,11.40
2018-03-28T10:59:14.757Z,11.40
2018-03-28T11:01:50.199Z,11.30
2018-03-28T11:04:22.177Z,11.30
2018-03-28T11:06:57.715Z,11.40
2018-03-28T11:09:29.512Z,11.40
2018-03-28T11:12:00.316Z,11.50
2018-03-28T11:14:33.916Z,11.60
2018-03-28T11:17:05.517Z,11.70
2018-03-28T11:19:37.217Z,11.70
2018-03-28T11:22:09.797Z,11.70
2018-03-28T11:24:45.757Z,11.70
2018-03-28T11:27:17.397Z,11.70
2018-03-28T11:29:48.858Z,11.70
2018-03-28T11:32:23.257Z,11.90
2018-03-28T11:34:54.486Z,11.90
2018-03-28T11:37:25.499Z,12.00
2018-03-28T11:39:57.403Z,12.10
2018-03-28T11:42:29.179Z,12.10
2018-03-28T11:45:05.642Z,12.30
2018-03-28T11:47:37.636Z,12.40
2018-03-28T11:50:08.439Z,12.50
2018-03-28T11:52:40.099Z,12.60
2018-03-28T11:55:11.040Z,12.60
2018-03-28T11:57:41.980Z,11.80
2018-03-28T12:00:12.898Z,12.80
2018-03-28T12:02:43.499Z,13.00
2018-03-28T12:05:14.378Z,13.20
2018-03-28T12:07:47.526Z,13.40
2018-03-28T12:10:18.608Z,13.40
2018-03-28T12:12:49.340Z,13.70
2018-03-28T12:15:26.939Z,13.80
2018-03-28T12:17:58.182Z,13.90
2018-03-28T12:20:29.638Z,14.00
2018-03-28T12:23:00.879Z,14.00
2018-03-28T12:25:32.220Z,14.00
2018-03-28T12:28:04.298Z,14.00
2018-03-28T12:30:35.319Z,14.00
2018-03-28T12:33:07.601Z,14.00
2018-03-28T12:35:40.088Z,14.00
2018-03-28T12:38:12.388Z,14.00
2018-03-28T12:40:45.008Z,14.00
2018-03-28T12:43:21.997Z,14.00
2018-03-28T12:45:53.962Z,14.00
2018-03-28T12:48:24.998Z,14.00
2018-03-28T12:51:03.494Z,14.00
2018-03-28T12:53:35.375Z,14.10
2018-03-28T12:56:08.157Z,14.00
2018-03-28T12:58:43.689Z,14.10
2018-03-28T13:01:15.048Z,14.10
2018-03-28T13:03:46.288Z,14.10
2018-03-28T13:06:17.128Z,14.10
2018-03-28T13:08:50.327Z,14.10
2018-03-28T13:11:21.670Z,14.00
2018-03-28T13:13:53.752Z,14.10
2018-03-28T13:16:25.388Z,14.20
2018-03-28T13:18:57.868Z,14.20
2018-03-28T13:21:29.605Z,14.20
2018-03-28T13:24:02.188Z,14.30
2018-03-28T13:26:33.330Z,14.30
2018-03-28T13:29:05.188Z,14.30
2018-03-28T13:31:36.447Z,15.00
2018-03-28T13:34:08.590Z,14.20
2018-03-28T13:36:40.771Z,14.20
2018-03-28T13:39:12.010Z,14.20
2018-03-28T13:41:43.772Z,14.20
2018-03-28T13:44:14.713Z,14.10
2018-03-28T13:46:51.389Z,14.10
2018-03-28T13:49:23.350Z,14.00
2018-03-28T13:51:57.752Z,14.00
2018-03-28T13:54:32.489Z,14.10
2018-03-28T13:57:03.735Z,14.00
2018-03-28T13:59:35.095Z,14.10
2018-03-28T14:02:06.855Z,14.20
2018-03-28T14:04:42.075Z,14.20
2018-03-28T14:07:13.714Z,14.20
2018-03-28T14:09:47.431Z,14.20
2018-03-28T14:12:20.213Z,14.20
2018-03-28T14:14:52.493Z,14.20
2018-03-28T14:17:24.512Z,14.30
2018-03-28T14:19:55.993Z,14.30
2018-03-28T14:22:27.517Z,14.50
2018-03-28T14:24:59.712Z,14.40
2018-03-28T14:27:35.153Z,14.40
2018-03-28T14:30:15.312Z,14.40
2018-03-28T14:32:47.991Z,14.30
2018-03-28T14:35:19.252Z,14.20
2018-03-28T14:37:51.212Z,14.20
2018-03-28T14:40:25.632Z,14.20
2018-03-28T14:42:56.772Z,14.20
2018-03-28T14:45:28.121Z,14.20
2018-03-28T14:48:02.510Z,14.10
2018-03-28T14:50:35.009Z,14.10
2018-03-28T14:53:06.314Z,14.10
2018-03-28T14:55:39.334Z,14.10
2018-03-28T14:58:10.894Z,14.10
2018-03-28T15:00:41.934Z,14.00
2018-03-28T15:03:15.834Z,14.00
2018-03-28T15:05:50.154Z,13.90
2018-03-28T15:08:21.194Z,13.90
2018-03-28T15:10:54.554Z,13.80
2018-03-28T15:13:26.135Z,13.80
2018-03-28T15:15:57.093Z,13.70
2018-03-28T15:18:28.937Z,13.70
2018-03-28T15:21:00.088Z,14.40
2018-03-28T15:23:31.135Z,13.60
2018-03-28T15:26:03.196Z,13.60
2018-03-28T15:28:35.051Z,13.60
2018-03-28T15:31:06.399Z,13.50
2018-03-28T15:33:41.226Z,13.50
2018-03-28T15:36:12.792Z,13.50
2018-03-28T15:38:44.630Z,13.50
2018-03-28T15:41:15.889Z,13.40
2018-03-28T15:43:47.637Z,13.30
2018-03-28T15:46:21.661Z,13.30
2018-03-28T15:48:52.902Z,13.30
2018-03-28T15:51:24.518Z,13.30
2018-03-28T15:53:57.737Z,13.20
2018-03-28T15:56:28.537Z,13.10
2018-03-28T15:58:59.559Z,13.10
2018-03-28T16:01:34.037Z,13.20
2018-03-28T16:04:06.197Z,13.20
2018-03-28T16:06:37.457Z,13.20
2018-03-28T16:09:08.578Z,13.10
2018-03-28T16:11:40.657Z,13.10
2018-03-28T16:14:12.559Z,13.10
2018-03-28T16:16:50.537Z,13.10
2018-03-28T16:19:26.157Z,13.00
2018-03-28T16:22:01.561Z,13.00
2018-03-28T16:24:32.965Z,13.00
2018-03-28T16:27:05.837Z,12.90
2018-03-28T16:29:38.197Z,12.90
2018-03-28T16:32:12.118Z,12.90
2018-03-28T16:34:48.078Z,12.90
2018-03-28T16:37:19.603Z,12.80
2018-03-28T16:39:50.358Z,12.80
2018-03-28T16:42:29.179Z,12.80
2018-03-28T16:45:02.158Z,12.80
2018-03-28T16:47:33.199Z,12.80
2018-03-28T16:50:06.498Z,12.80
2018-03-28T16:52:38.157Z,12.90
2018-03-28T16:55:09.951Z,12.90
2018-03-28T16:57:43.578Z,12.90
2018-03-28T17:00:15.998Z,12.90
2018-03-28T17:02:47.557Z,12.90
2018-03-28T17:05:20.542Z,12.90
2018-03-28T17:07:51.978Z,12.90
2018-03-28T17:10:26.378Z,12.90
2018-03-28T17:12:58.057Z,12.90
2018-03-28T17:15:29.917Z,12.90
2018-03-28T17:18:03.516Z,12.40
2018-03-28T17:20:35.257Z,12.80
2018-03-28T17:23:08.858Z,12.80
2018-03-28T17:25:39.798Z,12.80
2018-03-28T17:28:11.858Z,12.80
2018-03-28T17:30:43.018Z,12.80
2018-03-28T17:33:15.078Z,12.90
2018-03-28T17:35:47.137Z,12.90
2018-03-28T17:38:20.437Z,13.00
2018-03-28T17:40:52.896Z,13.00
2018-03-28T17:43:24.257Z,12.90
2018-03-28T17:45:56.601Z,12.90
2018-03-28T17:48:28.557Z,12.90
2018-03-28T17:51:02.179Z,12.90
2018-03-28T17:53:32.916Z,12.90
2018-03-28T17:56:04.378Z,12.90
2018-03-28T17:58:35.579Z,12.90
2018-03-28T18:01:07.278Z,12.90
2018-03-28T18:03:39.338Z,12.90
2018-03-28T18:06:10.378Z,12.80
2018-03-28T18:08:43.558Z,12.80
2018-03-28T18:11:14.817Z,12.80
2018-03-28T18:13:46.678Z,12.80
2018-03-28T18:16:18.582Z,12.80
2018-03-28T18:18:49.978Z,12.70
2018-03-28T18:21:24.080Z,12.70
2018-03-28T18:23:57.539Z,12.80
2018-03-28T18:26:29.657Z,12.70
2018-03-28T18:29:00.480Z,12.70
2018-03-28T18:31:34.561Z,12.70
2018-03-28T18:34:09.426Z,12.80
2018-03-28T18:36:41.300Z,12.70
2018-03-28T18:39:16.601Z,12.70
2018-03-28T18:41:47.561Z,12.70
2018-03-28T18:44:20.761Z,12.70
2018-03-28T18:46:54.061Z,12.70
2018-03-28T18:49:26.121Z,12.70
2018-03-28T18:51:56.943Z,12.70
2018-03-28T18:54:31.361Z,12.70
2018-03-28T18:57:02.821Z,12.70
2018-03-28T18:59:36.521Z,12.60
2018-03-28T19:02:07.860Z,12.60
2018-03-28T19:04:40.341Z,12.60
2018-03-28T19:07:18.562Z,12.60
2018-03-28T19:09:49.901Z,12.60
2018-03-28T19:12:21.861Z,13.00
2018-03-28T19:14:53.222Z,12.60
2018-03-28T19:17:31.221Z,12.70
2018-03-28T19:20:02.960Z,12.70
2018-03-28T19:22:33.841Z,12.70
2018-03-28T19:25:09.361Z,12.70
2018-03-28T19:27:41.225Z,12.60
2018-03-28T19:30:15.321Z,12.70
2018-03-28T19:32:46.065Z,12.70
2018-03-28T19:35:18.121Z,12.70
2018-03-28T19:37:49.782Z,12.70
2018-03-28T19:40:21.524Z,12.70
2018-03-28T19:42:52.261Z,12.70
2018-03-28T19:45:29.041Z,12.70
2018-03-28T19:48:04.702Z,12.70
2018-03-28T19:50:35.522Z,12.60
2018-03-28T19:53:10.463Z,12.60
2018-03-28T19:55:42.301Z,12.60
2018-03-28T19:58:15.401Z,12.50
2018-03-28T20:00:47.881Z,12.40
2018-03-28T20:03:18.701Z,12.40
2018-03-28T20:05:50.562Z,12.40
2018-03-28T20:08:23.582Z,12.40
2018-03-28T20:10:56.242Z,11.40
2018-03-28T20:18:01.302Z,12.30
2018-03-28T20:20:33.263Z,12.20
2018-03-28T20:23:08.310Z,12.20
2018-03-28T20:25:40.062Z,12.20
2018-03-28T20:28:11.104Z,12.20
2018-03-28T20:30:42.541Z,12.30
2018-03-28T20:33:15.103Z,12.20
2018-03-28T20:35:48.922Z,12.20
2018-03-28T20:38:20.162Z,12.20
2018-03-28T20:40:51.622Z,12.20
2018-03-28T20:43:22.760Z,12.20
2018-03-28T20:45:55.141Z,12.30
2018-03-28T20:48:26.987Z,12.30
2018-03-28T20:50:59.261Z,12.30
2018-03-28T20:53:30.701Z,12.30
2018-03-28T20:56:07.281Z,12.20
2018-03-28T20:58:41.382Z,12.10
2018-03-28T21:01:18.466Z,12.10
2018-03-28T21:03:52.682Z,12.10
2018-03-28T21:06:22.801Z,12.10
2018-03-28T21:08:57.026Z,12.00
2018-03-28T21:11:31.042Z,11.90
2018-03-28T21:14:02.808Z,11.80
2018-03-28T21:16:33.940Z,11.60
2018-03-28T21:19:05.903Z,11.50
2018-03-28T21:21:41.582Z,11.40
2018-03-28T21:24:13.921Z,11.40
2018-03-28T21:26:47.221Z,11.40
2018-03-28T21:29:21.821Z,11.30
2018-03-28T21:31:53.281Z,11.30
2018-03-28T21:34:27.901Z,11.40
2018-03-28T21:36:59.861Z,11.40
2018-03-28T21:39:31.222Z,11.50
2018-03-28T21:42:03.082Z,11.50
2018-03-28T21:44:34.322Z,11.60
2018-03-28T21:47:09.606Z,11.50
2018-03-28T21:49:43.361Z,11.60
2018-03-28T21:52:14.309Z,11.60
2018-03-28T21:54:46.881Z,11.60
2018-03-28T21:57:23.609Z,11.60
2018-03-28T21:59:56.121Z,11.60
2018-03-28T22:02:27.781Z,11.60
2018-03-28T22:05:02.581Z,11.70
2018-03-28T22:07:34.581Z,11.60
2018-03-28T22:10:07.261Z,11.70
2018-03-28T22:12:39.943Z,11.70
2018-03-28T22:15:11.601Z,11.70
2018-03-28T22:17:42.741Z,11.70
2018-03-28T22:20:14.641Z,11.70
2018-03-28T22:22:48.081Z,11.80
2018-03-28T22:25:22.102Z,11.80
2018-03-28T22:27:56.601Z,11.70
2018-03-28T22:30:28.882Z,11.80
2018-03-28T22:33:00.242Z,11.70
2018-03-28T22:35:32.301Z,11.70
2018-03-28T22:38:03.582Z,11.70
2018-03-28T22:40:35.002Z,11.60
2018-03-28T22:43:07.662Z,11.60
2018-03-28T22:45:42.081Z,11.60
2018-03-28T22:48:16.305Z,11.60
2018-03-28T22:50:48.262Z,11.50
2018-03-28T22:53:20.021Z,11.50
2018-03-28T22:55:51.979Z,11.60
2018-03-28T22:58:23.441Z,11.50
2018-03-28T23:00:55.602Z,11.50
2018-03-28T23:03:27.961Z,11.50
2018-03-28T23:05:59.123Z,11.50
2018-03-28T23:08:30.981Z,11.60
2018-03-28T23:11:01.821Z,11.60
2018-03-28T23:13:34.788Z,11.60
2018-03-28T23:16:05.322Z,11.60
2018-03-28T23:18:37.381Z,11.70
2018-03-28T23:21:09.561Z,11.70
2018-03-28T23:23:40.281Z,11.80
2018-03-28T23:26:11.620Z,11.80
2018-03-28T23:28:43.599Z,11.80
2018-03-28T23:31:18.600Z,11.80
2018-03-28T23:33:50.479Z,11.80
2018-03-28T23:36:22.039Z,11.80
2018-03-28T23:38:54.114Z,11.80
2018-03-28T23:41:25.446Z,11.80
2018-03-28T23:43:58.373Z,11.80
2018-03-28T23:46:30.213Z,11.80
2018-03-28T23:49:04.094Z,11.80
2018-03-28T23:51:38.834Z,11.70
2018-03-28T23:54:12.113Z,11.70
2018-03-28T23:56:44.652Z,11.70
2018-03-28T23:59:16.156Z,11.70
